createdAt,value
2024-03-14T00:00:24.197Z,7.31
2024-03-14T00:02:53.424Z,7.26
2024-03-14T00:05:21.550Z,7.29
2024-03-14T00:07:48.914Z,7.39
2024-03-14T00:10:16.081Z,7.40
2024-03-14T00:12:43.347Z,7.38
2024-03-14T00:15:12.949Z,7.38
2024-03-14T00:17:40.443Z,7.37
2024-03-14T00:20:10.039Z,7.35
2024-03-14T00:22:37.827Z,7.17
2024-03-14T00:25:04.966Z,7.29
2024-03-14T00:27:32.101Z,7.11
2024-03-14T00:29:59.308Z,7.15
2024-03-14T00:32:26.567Z,7.22
2024-03-14T00:34:53.836Z,7.29
2024-03-14T00:37:20.998Z,7.08
2024-03-14T00:39:48.233Z,7.10
2024-03-14T00:42:15.421Z,7.17
2024-03-14T00:44:43.417Z,7.18
2024-03-14T00:47:11.648Z,7.22
2024-03-14T00:49:39.476Z,7.28
2024-03-14T00:52:06.688Z,7.15
2024-03-14T00:54:34.930Z,7.13
2024-03-14T00:57:03.981Z,7.04
2024-03-14T00:59:31.790Z,7.08
2024-03-14T01:01:59.055Z,7.02
2024-03-14T01:04:26.142Z,6.85
2024-03-14T01:06:54.042Z,6.86
2024-03-14T01:09:26.378Z,6.79
2024-03-14T01:11:56.618Z,6.77
2024-03-14T01:14:23.818Z,6.71
2024-03-14T01:16:52.107Z,6.68
2024-03-14T01:19:20.226Z,6.69
2024-03-14T01:21:47.442Z,6.62
2024-03-14T01:24:14.975Z,6.73
2024-03-14T01:26:43.493Z,6.60
2024-03-14T01:29:12.074Z,6.57
2024-03-14T01:31:39.598Z,6.43
2024-03-14T01:34:07.014Z,6.37
2024-03-14T01:36:38.334Z,6.33
2024-03-14T01:39:06.712Z,6.25
2024-03-14T01:41:33.875Z,6.19
2024-03-14T01:44:02.595Z,6.20
2024-03-14T01:46:31.895Z,6.18
2024-03-14T01:49:01.219Z,6.17
2024-03-14T01:51:31.983Z,6.23
2024-03-14T01:54:00.901Z,6.25
2024-03-14T01:56:28.344Z,6.13
2024-03-14T01:58:56.088Z,6.07
2024-03-14T02:01:25.199Z,6.02
2024-03-14T02:04:02.347Z,6.00
2024-03-14T02:06:38.112Z,5.97
2024-03-14T02:09:06.041Z,5.96
2024-03-14T02:11:34.018Z,5.94
2024-03-14T02:14:01.477Z,5.96
2024-03-14T02:16:28.525Z,5.96
2024-03-14T02:18:55.703Z,5.92
2024-03-14T02:21:22.996Z,5.88
2024-03-14T02:23:51.641Z,5.89
2024-03-14T02:26:18.767Z,5.85
2024-03-14T02:28:45.859Z,5.82
2024-03-14T02:31:12.971Z,5.81
2024-03-14T02:33:40.116Z,5.84
2024-03-14T02:36:07.441Z,5.91
2024-03-14T02:38:35.172Z,5.96
2024-03-14T02:41:02.387Z,5.98
2024-03-14T02:43:29.640Z,5.91
2024-03-14T02:45:56.784Z,5.93
2024-03-14T02:48:23.982Z,6.02
2024-03-14T02:50:51.128Z,6.10
2024-03-14T02:53:18.243Z,6.15
2024-03-14T02:55:45.562Z,6.17
2024-03-14T02:58:12.876Z,6.20
2024-03-14T03:00:40.060Z,6.18
2024-03-14T03:03:08.048Z,6.13
2024-03-14T03:05:36.228Z,6.05
2024-03-14T03:08:03.940Z,5.83
2024-03-14T03:10:31.075Z,5.67
2024-03-14T03:12:58.052Z,5.45
2024-03-14T03:15:25.438Z,5.25
2024-03-14T03:17:53.689Z,5.19
2024-03-14T03:20:20.806Z,5.30
2024-03-14T03:23:06.655Z,5.22
2024-03-14T03:25:34.264Z,5.28
2024-03-14T03:28:05.694Z,5.28
2024-03-14T03:30:33.039Z,5.60
2024-03-14T03:33:01.503Z,5.47
2024-03-14T03:35:28.993Z,5.53
2024-03-14T03:37:56.690Z,5.59
2024-03-14T03:40:24.481Z,5.63
2024-03-14T03:42:54.496Z,5.65
2024-03-14T03:45:22.472Z,5.57
2024-03-14T03:47:50.921Z,5.54
2024-03-14T03:50:19.086Z,5.63
2024-03-14T03:52:47.267Z,5.55
2024-03-14T03:55:18.234Z,5.49
2024-03-14T03:57:47.232Z,5.37
2024-03-14T04:00:34.071Z,5.36
2024-03-14T04:03:01.401Z,5.27
2024-03-14T04:05:28.639Z,5.30
2024-03-14T04:08:01.012Z,5.29
2024-03-14T04:10:28.583Z,5.28
2024-03-14T04:12:55.963Z,5.24
2024-03-14T04:15:23.118Z,5.25
2024-03-14T04:17:52.090Z,5.24
2024-03-14T04:20:19.392Z,5.21
2024-03-14T04:22:48.122Z,5.17
2024-03-14T04:25:15.589Z,5.06
2024-03-14T04:27:42.917Z,4.96
2024-03-14T04:30:18.347Z,4.93
2024-03-14T04:32:49.330Z,4.87
2024-03-14T04:35:16.964Z,4.82
2024-03-14T04:37:48.557Z,4.81
2024-03-14T04:40:17.994Z,4.81
2024-03-14T04:42:54.455Z,4.81
2024-03-14T04:45:23.087Z,4.88
2024-03-14T04:47:50.972Z,4.91
2024-03-14T04:50:22.624Z,4.92
2024-03-14T04:52:55.584Z,4.95
2024-03-14T04:55:24.645Z,4.96
2024-03-14T04:57:52.048Z,5.05
2024-03-14T05:00:23.203Z,4.92
2024-03-14T05:02:52.880Z,4.87
2024-03-14T05:05:22.693Z,4.86
2024-03-14T05:07:51.192Z,5.00
2024-03-14T05:10:22.615Z,4.93
2024-03-14T05:12:50.745Z,4.86
2024-03-14T05:15:18.413Z,4.83
2024-03-14T05:17:47.059Z,4.86
2024-03-14T05:20:15.702Z,4.86
2024-03-14T05:22:44.105Z,4.90
2024-03-14T05:25:13.568Z,4.90
2024-03-14T05:27:51.035Z,4.98
2024-03-14T05:30:19.658Z,5.00
2024-03-14T05:32:47.189Z,4.97
2024-03-14T05:35:14.627Z,4.98
2024-03-14T05:37:43.034Z,4.99
2024-03-14T05:40:13.643Z,5.00
2024-03-14T05:42:41.071Z,4.97
2024-03-14T05:45:10.129Z,5.04
2024-03-14T05:47:40.132Z,5.09
2024-03-14T05:50:08.814Z,5.14
2024-03-14T05:52:37.123Z,5.10
2024-03-14T05:55:04.720Z,5.17
2024-03-14T05:57:32.318Z,5.10
2024-03-14T05:59:59.839Z,5.08
2024-03-14T06:02:26.989Z,5.03
2024-03-14T06:04:54.504Z,5.02
2024-03-14T06:07:23.367Z,5.15
2024-03-14T06:09:52.165Z,5.07
2024-03-14T06:12:19.817Z,5.08
2024-03-14T06:14:47.674Z,5.08
2024-03-14T06:17:16.523Z,5.18
2024-03-14T06:19:43.687Z,5.13
2024-03-14T06:22:11.908Z,5.10
2024-03-14T06:24:39.288Z,5.14
2024-03-14T06:27:06.562Z,5.12
2024-03-14T06:29:33.687Z,5.13
2024-03-14T06:32:00.768Z,5.13
2024-03-14T06:34:30.821Z,5.20
2024-03-14T06:36:58.980Z,5.28
2024-03-14T06:39:30.769Z,5.36
2024-03-14T06:41:59.068Z,5.40
2024-03-14T06:44:26.293Z,5.36
2024-03-14T06:46:53.452Z,5.31
2024-03-14T06:49:20.603Z,5.33
2024-03-14T06:51:47.725Z,5.36
2024-03-14T06:54:14.892Z,5.47
2024-03-14T06:56:42.181Z,5.46
2024-03-14T06:59:09.457Z,5.46
2024-03-14T07:01:36.673Z,5.39
2024-03-14T07:04:04.517Z,5.47
2024-03-14T07:06:33.208Z,5.45
2024-03-14T07:09:01.569Z,5.53
2024-03-14T07:11:29.932Z,5.64
2024-03-14T07:13:58.137Z,5.59
2024-03-14T07:16:27.236Z,5.67
2024-03-14T07:18:57.491Z,5.69
2024-03-14T07:21:24.769Z,5.72
2024-03-14T07:23:52.003Z,5.68
2024-03-14T07:26:23.608Z,5.80
2024-03-14T07:28:54.328Z,5.81
2024-03-14T07:31:21.559Z,5.88
2024-03-14T07:33:49.810Z,5.87
2024-03-14T07:36:17.649Z,5.90
2024-03-14T07:38:45.400Z,6.01
2024-03-14T07:41:12.846Z,6.04
2024-03-14T07:43:40.362Z,6.13
2024-03-14T07:46:09.134Z,6.19
2024-03-14T07:48:39.125Z,6.16
2024-03-14T07:51:08.777Z,6.21
2024-03-14T07:53:36.062Z,6.24
2024-03-14T07:56:05.355Z,6.23
2024-03-14T07:58:33.331Z,6.28
2024-03-14T08:01:01.846Z,6.24
2024-03-14T08:03:30.276Z,6.24
2024-03-14T08:05:57.522Z,6.18
2024-03-14T08:08:26.787Z,6.18
2024-03-14T08:10:54.435Z,6.16
2024-03-14T08:13:23.234Z,6.17
2024-03-14T08:15:54.227Z,6.28
2024-03-14T08:18:23.237Z,6.28
2024-03-14T08:20:53.274Z,6.41
2024-03-14T08:23:21.894Z,6.44
2024-03-14T08:25:49.168Z,6.64
2024-03-14T08:28:17.159Z,6.60
2024-03-14T08:30:46.120Z,6.74
2024-03-14T08:33:14.701Z,6.76
2024-03-14T08:35:44.424Z,6.91
2024-03-14T08:38:15.469Z,6.93
2024-03-14T08:40:43.705Z,6.94
2024-03-14T08:43:14.035Z,7.03
2024-03-14T08:45:41.994Z,7.29
2024-03-14T08:48:09.929Z,7.17
2024-03-14T08:50:37.449Z,7.19
2024-03-14T08:53:04.677Z,7.35
2024-03-14T08:55:34.560Z,7.26
2024-03-14T08:58:04.533Z,7.36
2024-03-14T09:00:32.623Z,7.29
2024-03-14T09:03:02.858Z,7.41
2024-03-14T09:05:30.892Z,7.45
2024-03-14T09:07:58.029Z,7.47
2024-03-14T09:10:26.554Z,7.61
2024-03-14T09:12:54.332Z,7.75
2024-03-14T09:15:23.253Z,7.72
2024-03-14T09:17:51.868Z,7.70
2024-03-14T09:20:22.017Z,7.72
2024-03-14T09:22:56.542Z,7.86
2024-03-14T09:25:25.868Z,7.86
2024-03-14T09:27:53.682Z,7.87
2024-03-14T09:30:23.633Z,8.00
2024-03-14T09:32:52.219Z,8.20
2024-03-14T09:35:28.092Z,8.32
2024-03-14T09:37:56.945Z,8.38
2024-03-14T09:40:25.065Z,8.44
2024-03-14T09:43:00.682Z,8.49
2024-03-14T09:45:30.504Z,8.45
2024-03-14T09:47:58.904Z,8.69
2024-03-14T09:50:28.118Z,8.68
2024-03-14T09:52:56.900Z,8.82
2024-03-14T09:55:25.214Z,8.74
2024-03-14T09:57:57.015Z,8.72
2024-03-14T10:00:27.641Z,8.88
2024-03-14T10:02:59.719Z,8.96
2024-03-14T10:05:27.486Z,9.15
2024-03-14T10:07:58.692Z,9.24
2024-03-14T10:10:33.146Z,9.39
2024-03-14T10:13:00.626Z,9.46
2024-03-14T10:15:28.834Z,9.45
2024-03-14T10:17:57.607Z,9.64
2024-03-14T10:20:24.942Z,9.63
2024-03-14T10:22:52.748Z,9.56
2024-03-14T10:25:29.478Z,10.02
2024-03-14T10:28:05.760Z,10.15
2024-03-14T10:30:38.964Z,10.34
2024-03-14T10:33:09.488Z,10.42
2024-03-14T10:35:38.871Z,10.50
2024-03-14T10:38:12.862Z,10.33
2024-03-14T10:40:42.849Z,10.56
2024-03-14T10:43:12.161Z,10.53
2024-03-14T10:45:39.719Z,10.49
2024-03-14T10:48:10.928Z,10.58
2024-03-14T10:50:38.972Z,10.77
2024-03-14T10:53:09.320Z,10.69
2024-03-14T10:55:39.395Z,10.84
2024-03-14T10:58:06.894Z,10.74
2024-03-14T11:00:36.511Z,10.97
2024-03-14T11:03:05.181Z,11.02
2024-03-14T11:05:33.292Z,10.95
2024-03-14T11:08:04.786Z,11.14
2024-03-14T11:10:35.369Z,11.34
2024-03-14T11:13:17.736Z,11.32
2024-03-14T11:15:45.285Z,11.49
2024-03-14T11:18:15.575Z,11.56
2024-03-14T11:20:51.284Z,11.58
2024-03-14T11:23:21.079Z,11.39
2024-03-14T11:25:53.733Z,11.19
2024-03-14T11:28:22.288Z,11.27
2024-03-14T11:30:58.142Z,11.56
2024-03-14T11:33:29.244Z,11.49
2024-03-14T11:35:58.266Z,11.44
2024-03-14T11:38:29.772Z,11.42
2024-03-14T11:41:03.252Z,11.09
2024-03-14T11:43:35.359Z,11.15
2024-03-14T11:46:09.189Z,11.13
2024-03-14T11:48:38.159Z,11.05
2024-03-14T11:51:05.581Z,11.02
2024-03-14T11:53:35.537Z,10.86
2024-03-14T11:56:10.448Z,11.12
2024-03-14T11:58:43.463Z,11.03
2024-03-14T12:01:22.106Z,11.27
2024-03-14T12:03:59.037Z,11.23
2024-03-14T12:06:27.190Z,11.09
2024-03-14T12:08:54.468Z,11.18
2024-03-14T12:11:22.730Z,11.39
2024-03-14T12:13:50.165Z,11.61
2024-03-14T12:16:19.701Z,12.03
2024-03-14T12:18:53.660Z,12.19
2024-03-14T12:21:21.840Z,12.25
2024-03-14T12:23:56.152Z,12.10
2024-03-14T12:26:23.917Z,11.79
2024-03-14T12:28:52.324Z,11.70
2024-03-14T12:31:20.777Z,11.44
2024-03-14T12:33:48.180Z,11.63
2024-03-14T12:36:18.972Z,11.68
2024-03-14T12:38:53.324Z,11.51
2024-03-14T12:41:20.621Z,11.30
2024-03-14T12:43:48.897Z,10.99
2024-03-14T12:46:21.336Z,11.07
2024-03-14T12:48:50.112Z,10.98
2024-03-14T12:51:24.660Z,11.09
2024-03-14T12:53:59.391Z,11.09
2024-03-14T12:56:26.899Z,10.92
2024-03-14T12:58:55.137Z,10.79
2024-03-14T13:01:31.426Z,10.93
2024-03-14T13:04:08.911Z,10.88
2024-03-14T13:06:37.323Z,10.71
2024-03-14T13:09:15.845Z,10.63
2024-03-14T13:12:03.268Z,10.58
2024-03-14T13:14:30.537Z,10.49
2024-03-14T13:17:07.166Z,10.49
2024-03-14T13:19:36.869Z,10.57
2024-03-14T13:22:12.137Z,10.83
2024-03-14T13:24:39.545Z,10.86
2024-03-14T13:27:06.848Z,10.69
2024-03-14T13:29:35.098Z,10.61
2024-03-14T13:32:02.246Z,10.75
2024-03-14T13:34:32.483Z,10.81
2024-03-14T13:36:59.671Z,10.78
2024-03-14T13:39:28.368Z,11.01
2024-03-14T13:41:58.662Z,11.03
2024-03-14T13:44:25.798Z,10.93
2024-03-14T13:46:53.763Z,10.95
2024-03-14T13:49:21.416Z,10.86
2024-03-14T13:51:49.573Z,10.92
2024-03-14T13:54:25.387Z,10.77
2024-03-14T13:56:55.465Z,10.91
2024-03-14T13:59:23.003Z,10.95
2024-03-14T14:01:50.434Z,11.15
2024-03-14T14:04:18.492Z,11.07
2024-03-14T14:06:45.893Z,11.13
2024-03-14T14:09:13.914Z,10.92
2024-03-14T14:11:41.189Z,10.84
2024-03-14T14:14:08.748Z,10.82
2024-03-14T14:16:37.697Z,10.79
2024-03-14T14:19:08.201Z,10.74
2024-03-14T14:21:38.973Z,10.74
2024-03-14T14:24:07.003Z,10.71
2024-03-14T14:26:34.198Z,10.79
2024-03-14T14:29:01.272Z,11.01
2024-03-14T14:31:28.939Z,10.88
2024-03-14T14:33:56.591Z,10.96
2024-03-14T14:36:23.708Z,10.97
2024-03-14T14:38:52.891Z,10.96
2024-03-14T14:41:20.806Z,10.83
2024-03-14T14:43:47.957Z,10.99
2024-03-14T14:46:15.279Z,10.87
2024-03-14T14:48:42.549Z,10.83
2024-03-14T14:51:09.819Z,10.76
2024-03-14T14:53:37.027Z,10.66
2024-03-14T14:56:15.268Z,10.61
2024-03-14T14:58:45.970Z,10.66
2024-03-14T15:01:17.984Z,10.62
2024-03-14T15:03:46.233Z,10.47
2024-03-14T15:06:13.935Z,10.46
2024-03-14T15:08:44.222Z,10.52
2024-03-14T15:11:11.610Z,10.53
2024-03-14T15:13:39.426Z,10.63
2024-03-14T15:16:09.318Z,10.64
2024-03-14T15:18:38.943Z,10.65
2024-03-14T15:21:07.755Z,10.56
2024-03-14T15:23:37.071Z,10.65
2024-03-14T15:26:09.730Z,10.67
2024-03-14T15:28:36.920Z,10.63
2024-03-14T15:31:04.140Z,10.57
2024-03-14T15:33:31.353Z,10.52
2024-03-14T15:35:58.967Z,10.68
2024-03-14T15:38:28.875Z,10.58
2024-03-14T15:40:56.041Z,10.53
2024-03-14T15:43:23.223Z,10.57
2024-03-14T15:45:52.751Z,10.65
2024-03-14T15:48:22.368Z,10.64
2024-03-14T15:50:50.331Z,10.65
2024-03-14T15:53:17.411Z,10.57
2024-03-14T15:55:46.292Z,10.50
2024-03-14T15:58:13.394Z,10.52
2024-03-14T16:00:41.156Z,10.67
2024-03-14T16:03:09.628Z,10.56
2024-03-14T16:05:37.495Z,10.55
2024-03-14T16:08:05.026Z,10.61
2024-03-14T16:10:32.246Z,10.59
2024-03-14T16:13:00.437Z,10.69
2024-03-14T16:15:27.620Z,10.66
2024-03-14T16:17:56.034Z,10.59
2024-03-14T16:20:33.305Z,10.62
2024-03-14T16:23:03.199Z,10.63
2024-03-14T16:25:35.974Z,10.54
2024-03-14T16:28:07.529Z,10.55
2024-03-14T16:30:35.913Z,10.49
2024-03-14T16:33:03.997Z,10.75
2024-03-14T16:35:33.925Z,10.48
2024-03-14T16:38:02.852Z,10.49
2024-03-14T16:40:32.360Z,10.42
2024-03-14T16:43:02.465Z,10.42
2024-03-14T16:45:30.416Z,10.38
2024-03-14T16:48:02.971Z,10.46
2024-03-14T16:50:32.161Z,10.53
2024-03-14T16:52:59.807Z,10.46
2024-03-14T16:55:29.728Z,10.58
2024-03-14T16:58:01.288Z,10.45
2024-03-14T17:00:31.770Z,10.48
2024-03-14T17:02:59.999Z,10.49
2024-03-14T17:05:27.063Z,10.42
2024-03-14T17:07:54.129Z,10.43
2024-03-14T17:10:24.372Z,10.38
2024-03-14T17:12:52.864Z,10.34
2024-03-14T17:15:22.689Z,10.35
2024-03-14T17:17:50.098Z,10.31
2024-03-14T17:20:18.306Z,10.34
2024-03-14T17:22:47.386Z,10.33
2024-03-14T17:25:16.128Z,10.32
2024-03-14T17:27:45.279Z,10.29
2024-03-14T17:30:18.178Z,10.32
2024-03-14T17:32:45.831Z,10.31
2024-03-14T17:35:13.683Z,10.29
2024-03-14T17:37:43.400Z,10.32
2024-03-14T17:40:14.350Z,10.30
2024-03-14T17:42:43.700Z,10.29
2024-03-14T17:45:16.840Z,10.23
2024-03-14T17:47:47.578Z,10.22
2024-03-14T17:50:16.091Z,10.16
2024-03-14T17:52:46.140Z,10.15
2024-03-14T17:55:15.295Z,10.14
2024-03-14T17:57:43.911Z,10.14
2024-03-14T18:00:12.402Z,10.07
2024-03-14T18:02:41.270Z,10.05
2024-03-14T18:05:10.550Z,10.04
2024-03-14T18:07:38.696Z,10.03
2024-03-14T18:10:11.253Z,10.06
2024-03-14T18:12:39.176Z,10.02
2024-03-14T18:15:09.472Z,9.99
2024-03-14T18:17:38.261Z,9.98
2024-03-14T18:20:13.880Z,9.95
2024-03-14T18:22:50.539Z,9.97
2024-03-14T18:25:21.205Z,9.97
2024-03-14T18:27:50.615Z,9.94
2024-03-14T18:30:21.404Z,9.95
2024-03-14T18:32:51.229Z,9.93
2024-03-14T18:35:22.179Z,9.91
2024-03-14T18:37:51.008Z,9.88
2024-03-14T18:40:27.361Z,9.84
2024-03-14T18:42:58.725Z,9.82
2024-03-14T18:45:27.555Z,9.82
2024-03-14T18:47:56.267Z,9.81
2024-03-14T18:50:23.474Z,9.79
2024-03-14T18:52:52.061Z,9.84
2024-03-14T18:55:21.863Z,9.79
2024-03-14T18:57:49.677Z,9.76
2024-03-14T19:00:20.802Z,9.80
2024-03-14T19:02:50.200Z,9.74
2024-03-14T19:05:18.324Z,9.70
2024-03-14T19:07:45.755Z,9.81
2024-03-14T19:10:13.207Z,9.73
2024-03-14T19:12:40.394Z,9.71
2024-03-14T19:15:07.887Z,9.70
2024-03-14T19:17:35.959Z,9.67
2024-03-14T19:20:06.192Z,9.64
2024-03-14T19:22:33.564Z,9.65
2024-03-14T19:25:01.706Z,9.55
2024-03-14T19:27:29.003Z,9.49
2024-03-14T19:29:57.609Z,9.48
2024-03-14T19:32:25.682Z,9.42
2024-03-14T19:34:53.280Z,9.37
2024-03-14T19:37:21.574Z,9.32
2024-03-14T19:39:49.501Z,9.30
2024-03-14T19:42:18.850Z,9.26
2024-03-14T19:44:47.127Z,9.28
2024-03-14T19:47:14.301Z,9.27
2024-03-14T19:49:42.301Z,9.23
2024-03-14T19:52:09.434Z,9.26
2024-03-14T19:54:37.573Z,9.27
2024-03-14T19:57:06.606Z,9.22
2024-03-14T19:59:34.755Z,9.19
2024-03-14T20:02:01.842Z,9.16
2024-03-14T20:04:31.019Z,9.15
2024-03-14T20:06:59.384Z,9.07
2024-03-14T20:09:27.206Z,9.09
2024-03-14T20:11:57.634Z,9.06
2024-03-14T20:14:25.437Z,9.06
2024-03-14T20:16:53.045Z,9.03
2024-03-14T20:19:21.036Z,9.06
2024-03-14T20:21:48.881Z,9.00
2024-03-14T20:24:16.867Z,8.98
2024-03-14T20:26:44.764Z,8.99
2024-03-14T20:29:11.887Z,8.98
2024-03-14T20:31:39.754Z,8.97
2024-03-14T20:34:08.924Z,8.95
2024-03-14T20:36:36.304Z,9.04
2024-03-14T20:39:11.780Z,9.04
2024-03-14T20:41:39.148Z,9.04
2024-03-14T20:44:09.254Z,8.95
2024-03-14T20:46:36.893Z,8.92
2024-03-14T20:49:05.061Z,9.04
2024-03-14T20:51:32.573Z,8.96
2024-03-14T20:54:02.468Z,8.95
2024-03-14T20:56:43.206Z,8.90
2024-03-14T20:59:13.714Z,8.91
2024-03-14T21:01:40.852Z,8.82
2024-03-14T21:04:11.213Z,8.77
2024-03-14T21:06:39.267Z,8.78
2024-03-14T21:09:09.091Z,8.83
2024-03-14T21:11:38.672Z,8.79
2024-03-14T21:14:07.111Z,8.81
2024-03-14T21:16:36.326Z,8.81
2024-03-14T21:19:04.739Z,8.80
2024-03-14T21:21:32.179Z,8.82
2024-03-14T21:24:02.697Z,8.79
2024-03-14T21:26:30.415Z,8.80
2024-03-14T21:29:00.785Z,8.77
2024-03-14T21:31:30.003Z,8.72
2024-03-14T21:33:57.215Z,8.67
2024-03-14T21:36:26.779Z,8.66
2024-03-14T21:38:53.923Z,8.60
2024-03-14T21:41:21.288Z,8.56
2024-03-14T21:43:48.371Z,8.55
2024-03-14T21:46:15.514Z,8.53
2024-03-14T21:48:46.628Z,8.58
2024-03-14T21:51:13.958Z,8.58
2024-03-14T21:53:41.824Z,8.56
2024-03-14T21:56:08.840Z,8.56
2024-03-14T21:58:41.862Z,8.50
2024-03-14T22:01:16.667Z,8.45
2024-03-14T22:03:43.923Z,8.47
2024-03-14T22:06:11.213Z,8.44
2024-03-14T22:08:38.572Z,8.44
2024-03-14T22:11:05.960Z,8.43
2024-03-14T22:13:33.285Z,8.43
2024-03-14T22:16:00.446Z,8.44
2024-03-14T22:18:27.683Z,8.47
2024-03-14T22:20:54.801Z,8.40
2024-03-14T22:23:22.275Z,8.39
2024-03-14T22:25:49.409Z,8.34
2024-03-14T22:28:16.681Z,8.34
2024-03-14T22:30:47.905Z,8.30
2024-03-14T22:33:19.885Z,8.28
2024-03-14T22:35:47.050Z,8.24
2024-03-14T22:38:14.111Z,8.23
2024-03-14T22:40:41.308Z,8.21
2024-03-14T22:43:09.559Z,8.18
2024-03-14T22:45:37.019Z,8.17
2024-03-14T22:48:04.649Z,8.16
2024-03-14T22:50:31.937Z,8.13
2024-03-14T22:53:00.195Z,8.13
2024-03-14T22:55:27.295Z,8.07
2024-03-14T22:57:54.807Z,8.03
2024-03-14T23:00:40.657Z,8.06
2024-03-14T23:03:09.124Z,8.04
2024-03-14T23:05:36.258Z,8.03
2024-03-14T23:08:05.067Z,7.97
2024-03-14T23:10:32.157Z,7.95
2024-03-14T23:12:59.323Z,7.92
2024-03-14T23:15:27.510Z,7.90
2024-03-14T23:17:55.510Z,7.92
2024-03-14T23:20:27.985Z,7.89
2024-03-14T23:22:55.176Z,7.88
2024-03-14T23:25:22.422Z,7.86
2024-03-14T23:27:50.373Z,7.87
2024-03-14T23:30:17.530Z,7.84
2024-03-14T23:32:47.197Z,7.83
2024-03-14T23:35:15.284Z,7.81
2024-03-14T23:37:43.377Z,7.78
2024-03-14T23:40:13.781Z,7.80
2024-03-14T23:42:43.280Z,7.78
2024-03-14T23:45:10.582Z,7.75
2024-03-14T23:47:43.838Z,7.76
2024-03-14T23:50:16.251Z,7.73
2024-03-14T23:52:48.232Z,7.70
2024-03-14T23:55:15.612Z,7.69
2024-03-14T23:57:45.579Z,7.64
